sensor_id;sensor_type;location;lat;lon;timestamp;P1;durP1;ratioP1;P2;durP2;ratioP2
7937;SDS011;4014;50.810;6.644;2022-08-25T00:01:27;0.40;;;0.40;;
7937;SDS011;4014;50.810;6.644;2022-08-25T00:03:55;0.47;;;0.47;;
7937;SDS011;4014;50.810;6.644;2022-08-25T00:06:22;0.40;;;0.40;;
7937;SDS011;4014;50.810;6.644;2022-08-25T00:08:51;0.43;;;0.43;;
7937;SDS011;4014;50.810;6.644;2022-08-25T00:11:20;0.40;;;0.40;;
7937;SDS011;4014;50.810;6.644;2022-08-25T00:13:49;0.40;;;0.40;;
7937;SDS011;4014;50.810;6.644;2022-08-25T00:16:17;0.40;;;0.40;;
7937;SDS011;4014;50.810;6.644;2022-08-25T00:18:46;0.38;;;0.38;;
7937;SDS011;4014;50.810;6.644;2022-08-25T00:21:13;0.40;;;0.40;;
7937;SDS011;4014;50.810;6.644;2022-08-25T00:23:41;0.40;;;0.40;;
7937;SDS011;4014;50.810;6.644;2022-08-25T00:26:10;0.40;;;0.40;;
7937;SDS011;4014;50.810;6.644;2022-08-25T00:28:37;0.40;;;0.40;;
7937;SDS011;4014;50.810;6.644;2022-08-25T00:31:05;0.40;;;0.40;;
7937;SDS011;4014;50.810;6.644;2022-08-25T00:33:32;0.30;;;0.30;;
7937;SDS011;4014;50.810;6.644;2022-08-25T00:35:59;0.40;;;0.40;;
7937;SDS011;4014;50.810;6.644;2022-08-25T00:38:27;0.40;;;0.40;;
7937;SDS011;4014;50.810;6.644;2022-08-25T00:40:54;0.40;;;0.40;;
7937;SDS011;4014;50.810;6.644;2022-08-25T00:43:34;0.40;;;0.40;;
7937;SDS011;4014;50.810;6.644;2022-08-25T00:46:02;0.40;;;0.40;;
7937;SDS011;4014;50.810;6.644;2022-08-25T00:48:29;0.30;;;0.30;;
7937;SDS011;4014;50.810;6.644;2022-08-25T00:50:56;0.40;;;0.40;;
7937;SDS011;4014;50.810;6.644;2022-08-25T00:53:23;0.40;;;0.40;;
7937;SDS011;4014;50.810;6.644;2022-08-25T00:55:50;0.40;;;0.40;;
7937;SDS011;4014;50.810;6.644;2022-08-25T00:58:19;0.40;;;0.40;;
7937;SDS011;4014;50.810;6.644;2022-08-25T01:00:50;0.40;;;0.40;;
7937;SDS011;4014;50.810;6.644;2022-08-25T01:03:20;0.40;;;0.40;;
7937;SDS011;4014;50.810;6.644;2022-08-25T01:05:47;0.40;;;0.40;;
7937;SDS011;4014;50.810;6.644;2022-08-25T01:08:14;0.40;;;0.40;;
7937;SDS011;4014;50.810;6.644;2022-08-25T01:10:45;0.40;;;0.40;;
7937;SDS011;4014;50.810;6.644;2022-08-25T01:13:13;0.40;;;0.40;;
7937;SDS011;4014;50.810;6.644;2022-08-25T01:15:42;0.40;;;0.40;;
7937;SDS011;4014;50.810;6.644;2022-08-25T01:18:11;0.40;;;0.40;;
7937;SDS011;4014;50.810;6.644;2022-08-25T01:20:38;0.50;;;0.50;;
7937;SDS011;4014;50.810;6.644;2022-08-25T01:23:06;0.50;;;0.50;;
7937;SDS011;4014;50.810;6.644;2022-08-25T01:25:35;0.40;;;0.40;;
7937;SDS011;4014;50.810;6.644;2022-08-25T01:28:05;0.40;;;0.40;;
7937;SDS011;4014;50.810;6.644;2022-08-25T01:30:32;0.40;;;0.40;;
7937;SDS011;4014;50.810;6.644;2022-08-25T01:33:01;0.40;;;0.40;;
7937;SDS011;4014;50.810;6.644;2022-08-25T01:35:28;0.30;;;0.30;;
7937;SDS011;4014;50.810;6.644;2022-08-25T01:37:56;0.40;;;0.40;;
7937;SDS011;4014;50.810;6.644;2022-08-25T01:40:25;0.40;;;0.40;;
7937;SDS011;4014;50.810;6.644;2022-08-25T01:42:53;0.40;;;0.40;;
7937;SDS011;4014;50.810;6.644;2022-08-25T01:45:24;0.40;;;0.40;;
7937;SDS011;4014;50.810;6.644;2022-08-25T01:47:51;0.40;;;0.40;;
7937;SDS011;4014;50.810;6.644;2022-08-25T01:50:18;0.40;;;0.40;;
7937;SDS011;4014;50.810;6.644;2022-08-25T01:52:51;0.43;;;0.43;;
7937;SDS011;4014;50.810;6.644;2022-08-25T01:55:19;0.40;;;0.40;;
7937;SDS011;4014;50.810;6.644;2022-08-25T01:57:48;0.40;;;0.40;;
7937;SDS011;4014;50.810;6.644;2022-08-25T02:00:15;0.40;;;0.40;;
7937;SDS011;4014;50.810;6.644;2022-08-25T02:02:43;0.45;;;0.45;;
7937;SDS011;4014;50.810;6.644;2022-08-25T02:05:11;0.40;;;0.40;;
7937;SDS011;4014;50.810;6.644;2022-08-25T02:07:40;0.40;;;0.40;;
7937;SDS011;4014;50.810;6.644;2022-08-25T02:10:08;0.40;;;0.40;;
7937;SDS011;4014;50.810;6.644;2022-08-25T02:12:35;0.40;;;0.40;;
7937;SDS011;4014;50.810;6.644;2022-08-25T02:15:05;0.40;;;0.40;;
7937;SDS011;4014;50.810;6.644;2022-08-25T02:17:33;0.40;;;0.40;;
7937;SDS011;4014;50.810;6.644;2022-08-25T02:20:00;0.40;;;0.40;;
7937;SDS011;4014;50.810;6.644;2022-08-25T02:22:27;0.40;;;0.40;;
7937;SDS011;4014;50.810;6.644;2022-08-25T02:24:55;0.40;;;0.40;;
7937;SDS011;4014;50.810;6.644;2022-08-25T02:27:22;0.40;;;0.40;;
7937;SDS011;4014;50.810;6.644;2022-08-25T02:29:49;0.40;;;0.40;;
7937;SDS011;4014;50.810;6.644;2022-08-25T02:32:17;0.40;;;0.40;;
7937;SDS011;4014;50.810;6.644;2022-08-25T02:34:44;0.40;;;0.40;;
7937;SDS011;4014;50.810;6.644;2022-08-25T02:37:11;0.40;;;0.40;;
7937;SDS011;4014;50.810;6.644;2022-08-25T02:39:39;0.40;;;0.40;;
7937;SDS011;4014;50.810;6.644;2022-08-25T02:42:06;0.35;;;0.35;;
7937;SDS011;4014;50.810;6.644;2022-08-25T02:44:33;0.40;;;0.40;;
7937;SDS011;4014;50.810;6.644;2022-08-25T02:47:00;0.40;;;0.40;;
7937;SDS011;4014;50.810;6.644;2022-08-25T02:49:29;0.40;;;0.40;;
7937;SDS011;4014;50.810;6.644;2022-08-25T02:51:57;0.40;;;0.40;;
7937;SDS011;4014;50.810;6.644;2022-08-25T02:54:24;0.40;;;0.40;;
7937;SDS011;4014;50.810;6.644;2022-08-25T02:56:51;0.40;;;0.40;;
7937;SDS011;4014;50.810;6.644;2022-08-25T02:59:19;0.40;;;0.40;;
7937;SDS011;4014;50.810;6.644;2022-08-25T03:01:46;0.40;;;0.40;;
7937;SDS011;4014;50.810;6.644;2022-08-25T03:04:13;0.40;;;0.40;;
7937;SDS011;4014;50.810;6.644;2022-08-25T03:06:41;0.40;;;0.40;;
7937;SDS011;4014;50.810;6.644;2022-08-25T03:09:08;0.40;;;0.40;;
7937;SDS011;4014;50.810;6.644;2022-08-25T03:11:35;0.40;;;0.40;;
7937;SDS011;4014;50.810;6.644;2022-08-25T03:14:03;0.50;;;0.50;;
7937;SDS011;4014;50.810;6.644;2022-08-25T03:16:30;0.50;;;0.50;;
7937;SDS011;4014;50.810;6.644;2022-08-25T03:18:57;0.40;;;0.40;;
7937;SDS011;4014;50.810;6.644;2022-08-25T03:21:25;0.40;;;0.40;;
7937;SDS011;4014;50.810;6.644;2022-08-25T03:23:54;0.40;;;0.40;;
7937;SDS011;4014;50.810;6.644;2022-08-25T03:26:21;0.40;;;0.40;;
7937;SDS011;4014;50.810;6.644;2022-08-25T03:29:06;0.40;;;0.40;;
7937;SDS011;4014;50.810;6.644;2022-08-25T03:31:34;0.40;;;0.40;;
7937;SDS011;4014;50.810;6.644;2022-08-25T03:34:02;0.40;;;0.40;;
7937;SDS011;4014;50.810;6.644;2022-08-25T03:36:29;0.45;;;0.45;;
7937;SDS011;4014;50.810;6.644;2022-08-25T03:38:57;0.50;;;0.50;;
7937;SDS011;4014;50.810;6.644;2022-08-25T03:41:25;0.40;;;0.40;;
7937;SDS011;4014;50.810;6.644;2022-08-25T03:43:53;0.40;;;0.40;;
7937;SDS011;4014;50.810;6.644;2022-08-25T03:46:21;0.40;;;0.40;;
7937;SDS011;4014;50.810;6.644;2022-08-25T03:48:49;0.40;;;0.40;;
7937;SDS011;4014;50.810;6.644;2022-08-25T03:51:20;0.40;;;0.40;;
7937;SDS011;4014;50.810;6.644;2022-08-25T03:53:47;0.40;;;0.40;;
7937;SDS011;4014;50.810;6.644;2022-08-25T03:56:16;0.40;;;0.40;;
7937;SDS011;4014;50.810;6.644;2022-08-25T03:58:43;0.40;;;0.40;;
7937;SDS011;4014;50.810;6.644;2022-08-25T04:01:10;0.40;;;0.40;;
7937;SDS011;4014;50.810;6.644;2022-08-25T04:03:37;0.40;;;0.40;;
7937;SDS011;4014;50.810;6.644;2022-08-25T04:06:04;0.50;;;0.50;;
7937;SDS011;4014;50.810;6.644;2022-08-25T04:08:32;0.40;;;0.40;;
7937;SDS011;4014;50.810;6.644;2022-08-25T04:11:03;0.40;;;0.40;;
7937;SDS011;4014;50.810;6.644;2022-08-25T04:13:32;0.40;;;0.40;;
7937;SDS011;4014;50.810;6.644;2022-08-25T04:16:00;0.40;;;0.40;;
7937;SDS011;4014;50.810;6.644;2022-08-25T04:18:27;0.40;;;0.40;;
7937;SDS011;4014;50.810;6.644;2022-08-25T04:21:00;0.50;;;0.50;;
7937;SDS011;4014;50.810;6.644;2022-08-25T04:23:27;0.40;;;0.40;;
7937;SDS011;4014;50.810;6.644;2022-08-25T04:25:54;0.33;;;0.33;;
7937;SDS011;4014;50.810;6.644;2022-08-25T04:28:22;0.40;;;0.40;;
7937;SDS011;4014;50.810;6.644;2022-08-25T04:30:50;0.47;;;0.47;;
7937;SDS011;4014;50.810;6.644;2022-08-25T04:33:17;0.40;;;0.40;;
7937;SDS011;4014;50.810;6.644;2022-08-25T04:35:46;0.40;;;0.40;;
7937;SDS011;4014;50.810;6.644;2022-08-25T04:38:13;0.30;;;0.30;;
7937;SDS011;4014;50.810;6.644;2022-08-25T04:40:40;0.40;;;0.40;;
7937;SDS011;4014;50.810;6.644;2022-08-25T04:43:07;0.40;;;0.40;;
7937;SDS011;4014;50.810;6.644;2022-08-25T04:45:35;0.40;;;0.40;;
7937;SDS011;4014;50.810;6.644;2022-08-25T04:48:04;0.40;;;0.40;;
7937;SDS011;4014;50.810;6.644;2022-08-25T04:50:31;0.40;;;0.40;;
7937;SDS011;4014;50.810;6.644;2022-08-25T04:52:58;0.40;;;0.40;;
7937;SDS011;4014;50.810;6.644;2022-08-25T04:55:25;0.30;;;0.30;;
7937;SDS011;4014;50.810;6.644;2022-08-25T04:57:53;0.40;;;0.40;;
7937;SDS011;4014;50.810;6.644;2022-08-25T05:00:20;0.40;;;0.40;;
7937;SDS011;4014;50.810;6.644;2022-08-25T05:02:47;0.50;;;0.50;;
7937;SDS011;4014;50.810;6.644;2022-08-25T05:05:15;0.40;;;0.40;;
7937;SDS011;4014;50.810;6.644;2022-08-25T05:07:42;0.40;;;0.40;;
7937;SDS011;4014;50.810;6.644;2022-08-25T05:10:11;0.40;;;0.40;;
7937;SDS011;4014;50.810;6.644;2022-08-25T05:12:38;0.40;;;0.40;;
7937;SDS011;4014;50.810;6.644;2022-08-25T05:15:06;0.40;;;0.40;;
7937;SDS011;4014;50.810;6.644;2022-08-25T05:17:47;0.40;;;0.40;;
7937;SDS011;4014;50.810;6.644;2022-08-25T05:20:15;0.40;;;0.40;;
7937;SDS011;4014;50.810;6.644;2022-08-25T05:22:43;0.40;;;0.40;;
7937;SDS011;4014;50.810;6.644;2022-08-25T05:25:11;0.40;;;0.40;;
7937;SDS011;4014;50.810;6.644;2022-08-25T05:27:38;0.43;;;0.43;;
7937;SDS011;4014;50.810;6.644;2022-08-25T05:30:08;0.40;;;0.40;;
7937;SDS011;4014;50.810;6.644;2022-08-25T05:32:35;0.40;;;0.40;;
7937;SDS011;4014;50.810;6.644;2022-08-25T05:35:03;0.40;;;0.40;;
7937;SDS011;4014;50.810;6.644;2022-08-25T05:37:31;0.35;;;0.35;;
7937;SDS011;4014;50.810;6.644;2022-08-25T05:39:59;0.40;;;0.40;;
7937;SDS011;4014;50.810;6.644;2022-08-25T05:42:26;0.40;;;0.40;;
7937;SDS011;4014;50.810;6.644;2022-08-25T05:44:53;0.40;;;0.40;;
7937;SDS011;4014;50.810;6.644;2022-08-25T05:47:20;0.40;;;0.40;;
7937;SDS011;4014;50.810;6.644;2022-08-25T05:49:48;0.40;;;0.40;;
7937;SDS011;4014;50.810;6.644;2022-08-25T05:52:15;0.40;;;0.40;;
7937;SDS011;4014;50.810;6.644;2022-08-25T05:54:43;0.40;;;0.40;;
7937;SDS011;4014;50.810;6.644;2022-08-25T05:57:10;0.40;;;0.40;;
7937;SDS011;4014;50.810;6.644;2022-08-25T05:59:38;0.33;;;0.33;;
7937;SDS011;4014;50.810;6.644;2022-08-25T06:02:05;0.40;;;0.40;;
7937;SDS011;4014;50.810;6.644;2022-08-25T06:04:50;0.40;;;0.40;;
7937;SDS011;4014;50.810;6.644;2022-08-25T06:07:17;0.40;;;0.40;;
7937;SDS011;4014;50.810;6.644;2022-08-25T06:09:46;0.40;;;0.40;;
7937;SDS011;4014;50.810;6.644;2022-08-25T06:12:14;0.40;;;0.40;;
7937;SDS011;4014;50.810;6.644;2022-08-25T06:14:41;0.40;;;0.40;;
7937;SDS011;4014;50.810;6.644;2022-08-25T06:17:08;0.40;;;0.40;;
7937;SDS011;4014;50.810;6.644;2022-08-25T06:19:35;0.40;;;0.40;;
7937;SDS011;4014;50.810;6.644;2022-08-25T06:22:02;0.40;;;0.40;;
7937;SDS011;4014;50.810;6.644;2022-08-25T06:24:29;0.40;;;0.40;;
7937;SDS011;4014;50.810;6.644;2022-08-25T06:26:58;0.40;;;0.40;;
7937;SDS011;4014;50.810;6.644;2022-08-25T06:29:27;0.40;;;0.40;;
7937;SDS011;4014;50.810;6.644;2022-08-25T06:31:54;0.40;;;0.40;;
7937;SDS011;4014;50.810;6.644;2022-08-25T06:34:22;0.40;;;0.40;;
7937;SDS011;4014;50.810;6.644;2022-08-25T06:36:49;0.40;;;0.40;;
7937;SDS011;4014;50.810;6.644;2022-08-25T06:39:17;0.45;;;0.45;;
7937;SDS011;4014;50.810;6.644;2022-08-25T06:41:44;0.50;;;0.50;;
7937;SDS011;4014;50.810;6.644;2022-08-25T06:44:12;0.43;;;0.43;;
7937;SDS011;4014;50.810;6.644;2022-08-25T06:46:40;0.40;;;0.40;;
7937;SDS011;4014;50.810;6.644;2022-08-25T06:49:07;0.40;;;0.40;;
7937;SDS011;4014;50.810;6.644;2022-08-25T06:51:34;0.40;;;0.40;;
7937;SDS011;4014;50.810;6.644;2022-08-25T06:54:02;0.50;;;0.50;;
7937;SDS011;4014;50.810;6.644;2022-08-25T06:56:29;0.50;;;0.50;;
7937;SDS011;4014;50.810;6.644;2022-08-25T06:58:56;0.40;;;0.40;;
7937;SDS011;4014;50.810;6.644;2022-08-25T07:01:24;0.50;;;0.50;;
7937;SDS011;4014;50.810;6.644;2022-08-25T07:03:52;0.50;;;0.50;;
7937;SDS011;4014;50.810;6.644;2022-08-25T07:06:21;0.50;;;0.50;;
7937;SDS011;4014;50.810;6.644;2022-08-25T07:08:48;0.50;;;0.50;;
7937;SDS011;4014;50.810;6.644;2022-08-25T07:11:16;0.50;;;0.50;;
7937;SDS011;4014;50.810;6.644;2022-08-25T07:13:44;0.50;;;0.50;;
7937;SDS011;4014;50.810;6.644;2022-08-25T07:16:12;0.50;;;0.50;;
7937;SDS011;4014;50.810;6.644;2022-08-25T07:18:41;0.50;;;0.50;;
7937;SDS011;4014;50.810;6.644;2022-08-25T07:21:08;0.43;;;0.43;;
7937;SDS011;4014;50.810;6.644;2022-08-25T07:23:36;0.50;;;0.50;;
7937;SDS011;4014;50.810;6.644;2022-08-25T07:26:07;0.50;;;0.50;;
7937;SDS011;4014;50.810;6.644;2022-08-25T07:28:34;0.50;;;0.50;;
7937;SDS011;4014;50.810;6.644;2022-08-25T07:31:02;0.50;;;0.50;;
7937;SDS011;4014;50.810;6.644;2022-08-25T07:33:29;0.50;;;0.50;;
7937;SDS011;4014;50.810;6.644;2022-08-25T07:35:58;0.50;;;0.50;;
7937;SDS011;4014;50.810;6.644;2022-08-25T07:38:24;0.50;;;0.50;;
7937;SDS011;4014;50.810;6.644;2022-08-25T07:40:51;0.50;;;0.50;;
7937;SDS011;4014;50.810;6.644;2022-08-25T07:43:19;0.47;;;0.47;;
7937;SDS011;4014;50.810;6.644;2022-08-25T07:45:47;0.40;;;0.40;;
7937;SDS011;4014;50.810;6.644;2022-08-25T07:48:14;0.50;;;0.50;;
7937;SDS011;4014;50.810;6.644;2022-08-25T07:50:44;0.50;;;0.50;;
7937;SDS011;4014;50.810;6.644;2022-08-25T07:53:13;0.50;;;0.50;;
7937;SDS011;4014;50.810;6.644;2022-08-25T07:55:40;0.50;;;0.50;;
7937;SDS011;4014;50.810;6.644;2022-08-25T07:58:08;0.50;;;0.50;;
7937;SDS011;4014;50.810;6.644;2022-08-25T08:00:35;0.50;;;0.50;;
7937;SDS011;4014;50.810;6.644;2022-08-25T08:03:03;0.50;;;0.50;;
7937;SDS011;4014;50.810;6.644;2022-08-25T08:05:31;0.50;;;0.50;;
7937;SDS011;4014;50.810;6.644;2022-08-25T08:07:58;0.50;;;0.50;;
7937;SDS011;4014;50.810;6.644;2022-08-25T08:10:27;0.50;;;0.50;;
7937;SDS011;4014;50.810;6.644;2022-08-25T08:12:54;0.50;;;0.50;;
7937;SDS011;4014;50.810;6.644;2022-08-25T08:15:21;0.50;;;0.50;;
7937;SDS011;4014;50.810;6.644;2022-08-25T08:17:49;0.50;;;0.50;;
7937;SDS011;4014;50.810;6.644;2022-08-25T08:20:16;0.50;;;0.50;;
7937;SDS011;4014;50.810;6.644;2022-08-25T08:22:43;0.50;;;0.50;;
7937;SDS011;4014;50.810;6.644;2022-08-25T08:25:10;0.60;;;0.60;;
7937;SDS011;4014;50.810;6.644;2022-08-25T08:27:39;0.52;;;0.52;;
7937;SDS011;4014;50.810;6.644;2022-08-25T08:30:07;0.60;;;0.60;;
7937;SDS011;4014;50.810;6.644;2022-08-25T08:32:34;0.60;;;0.60;;
7937;SDS011;4014;50.810;6.644;2022-08-25T08:35:02;0.50;;;0.50;;
7937;SDS011;4014;50.810;6.644;2022-08-25T08:37:31;0.50;;;0.50;;
7937;SDS011;4014;50.810;6.644;2022-08-25T08:39:58;0.60;;;0.60;;
7937;SDS011;4014;50.810;6.644;2022-08-25T08:42:33;0.50;;;0.50;;
7937;SDS011;4014;50.810;6.644;2022-08-25T08:45:15;0.50;;;0.50;;
7937;SDS011;4014;50.810;6.644;2022-08-25T08:47:48;0.50;;;0.50;;
7937;SDS011;4014;50.810;6.644;2022-08-25T08:50:21;0.50;;;0.50;;
7937;SDS011;4014;50.810;6.644;2022-08-25T08:52:50;0.50;;;0.50;;
7937;SDS011;4014;50.810;6.644;2022-08-25T08:55:20;0.50;;;0.50;;
7937;SDS011;4014;50.810;6.644;2022-08-25T08:57:49;0.57;;;0.57;;
7937;SDS011;4014;50.810;6.644;2022-08-25T09:00:21;0.60;;;0.60;;
7937;SDS011;4014;50.810;6.644;2022-08-25T09:02:49;0.57;;;0.57;;
7937;SDS011;4014;50.810;6.644;2022-08-25T09:05:19;0.50;;;0.50;;
7937;SDS011;4014;50.810;6.644;2022-08-25T09:07:49;0.50;;;0.50;;
7937;SDS011;4014;50.810;6.644;2022-08-25T09:10:16;0.50;;;0.50;;
7937;SDS011;4014;50.810;6.644;2022-08-25T09:12:45;0.57;;;0.57;;
7937;SDS011;4014;50.810;6.644;2022-08-25T09:15:17;0.52;;;0.52;;
7937;SDS011;4014;50.810;6.644;2022-08-25T09:17:55;0.50;;;0.50;;
7937;SDS011;4014;50.810;6.644;2022-08-25T09:23:24;0.50;;;0.50;;
7937;SDS011;4014;50.810;6.644;2022-08-25T09:25:56;0.50;;;0.50;;
7937;SDS011;4014;50.810;6.644;2022-08-25T09:28:27;0.50;;;0.50;;
7937;SDS011;4014;50.810;6.644;2022-08-25T09:30:58;0.50;;;0.50;;
7937;SDS011;4014;50.810;6.644;2022-08-25T09:33:28;0.50;;;0.50;;
7937;SDS011;4014;50.810;6.644;2022-08-25T09:35:55;0.50;;;0.50;;
7937;SDS011;4014;50.810;6.644;2022-08-25T09:38:23;0.50;;;0.50;;
7937;SDS011;4014;50.810;6.644;2022-08-25T09:40:52;0.43;;;0.43;;
7937;SDS011;4014;50.810;6.644;2022-08-25T09:43:20;0.47;;;0.47;;
7937;SDS011;4014;50.810;6.644;2022-08-25T09:45:49;0.50;;;0.50;;
7937;SDS011;4014;50.810;6.644;2022-08-25T09:48:22;0.50;;;0.50;;
7937;SDS011;4014;50.810;6.644;2022-08-25T09:50:51;0.50;;;0.50;;
7937;SDS011;4014;50.810;6.644;2022-08-25T09:53:19;0.40;;;0.40;;
7937;SDS011;4014;50.810;6.644;2022-08-25T09:55:51;0.50;;;0.50;;
7937;SDS011;4014;50.810;6.644;2022-08-25T09:58:21;0.50;;;0.50;;
7937;SDS011;4014;50.810;6.644;2022-08-25T10:01:00;0.50;;;0.50;;
7937;SDS011;4014;50.810;6.644;2022-08-25T10:03:27;0.50;;;0.50;;
7937;SDS011;4014;50.810;6.644;2022-08-25T10:05:58;0.43;;;0.43;;
7937;SDS011;4014;50.810;6.644;2022-08-25T10:08:27;0.50;;;0.50;;
7937;SDS011;4014;50.810;6.644;2022-08-25T10:10:56;0.50;;;0.50;;
7937;SDS011;4014;50.810;6.644;2022-08-25T10:13:31;0.50;;;0.50;;
7937;SDS011;4014;50.810;6.644;2022-08-25T10:16:02;0.50;;;0.50;;
7937;SDS011;4014;50.810;6.644;2022-08-25T10:18:29;0.50;;;0.50;;
7937;SDS011;4014;50.810;6.644;2022-08-25T10:21:05;0.50;;;0.50;;
7937;SDS011;4014;50.810;6.644;2022-08-25T10:23:34;0.50;;;0.50;;
7937;SDS011;4014;50.810;6.644;2022-08-25T10:26:04;0.50;;;0.50;;
7937;SDS011;4014;50.810;6.644;2022-08-25T10:28:32;0.50;;;0.50;;
7937;SDS011;4014;50.810;6.644;2022-08-25T10:31:05;0.50;;;0.50;;
7937;SDS011;4014;50.810;6.644;2022-08-25T10:33:37;0.50;;;0.50;;
7937;SDS011;4014;50.810;6.644;2022-08-25T10:36:09;0.50;;;0.50;;
7937;SDS011;4014;50.810;6.644;2022-08-25T10:38:41;0.50;;;0.50;;
7937;SDS011;4014;50.810;6.644;2022-08-25T10:41:15;0.50;;;0.50;;
7937;SDS011;4014;50.810;6.644;2022-08-25T10:43:47;0.50;;;0.50;;
7937;SDS011;4014;50.810;6.644;2022-08-25T10:46:16;0.50;;;0.50;;
7937;SDS011;4014;50.810;6.644;2022-08-25T10:48:49;0.50;;;0.50;;
7937;SDS011;4014;50.810;6.644;2022-08-25T10:54:09;0.50;;;0.50;;
7937;SDS011;4014;50.810;6.644;2022-08-25T10:56:40;0.50;;;0.50;;
7937;SDS011;4014;50.810;6.644;2022-08-25T10:59:15;0.50;;;0.50;;
7937;SDS011;4014;50.810;6.644;2022-08-25T11:01:52;0.50;;;0.50;;
7937;SDS011;4014;50.810;6.644;2022-08-25T11:04:21;0.50;;;0.50;;
7937;SDS011;4014;50.810;6.644;2022-08-25T11:06:52;0.50;;;0.50;;
7937;SDS011;4014;50.810;6.644;2022-08-25T11:09:23;0.50;;;0.50;;
7937;SDS011;4014;50.810;6.644;2022-08-25T11:11:52;0.50;;;0.50;;
7937;SDS011;4014;50.810;6.644;2022-08-25T11:14:22;0.40;;;0.40;;
7937;SDS011;4014;50.810;6.644;2022-08-25T11:16:51;0.40;;;0.40;;
7937;SDS011;4014;50.810;6.644;2022-08-25T11:19:21;0.50;;;0.50;;
7937;SDS011;4014;50.810;6.644;2022-08-25T11:21:51;0.47;;;0.47;;
7937;SDS011;4014;50.810;6.644;2022-08-25T11:24:29;0.47;;;0.47;;
7937;SDS011;4014;50.810;6.644;2022-08-25T11:26:57;0.50;;;0.50;;
7937;SDS011;4014;50.810;6.644;2022-08-25T11:29:25;0.50;;;0.50;;
7937;SDS011;4014;50.810;6.644;2022-08-25T11:31:55;0.50;;;0.50;;
7937;SDS011;4014;50.810;6.644;2022-08-25T11:34:24;0.50;;;0.50;;
7937;SDS011;4014;50.810;6.644;2022-08-25T11:36:52;0.50;;;0.50;;
7937;SDS011;4014;50.810;6.644;2022-08-25T11:39:24;0.50;;;0.50;;
7937;SDS011;4014;50.810;6.644;2022-08-25T11:41:58;0.50;;;0.50;;
7937;SDS011;4014;50.810;6.644;2022-08-25T11:44:35;0.50;;;0.50;;
7937;SDS011;4014;50.810;6.644;2022-08-25T11:47:10;0.50;;;0.50;;
7937;SDS011;4014;50.810;6.644;2022-08-25T11:49:45;0.50;;;0.50;;
7937;SDS011;4014;50.810;6.644;2022-08-25T11:55:18;0.50;;;0.50;;
7937;SDS011;4014;50.810;6.644;2022-08-25T11:57:47;0.50;;;0.50;;
7937;SDS011;4014;50.810;6.644;2022-08-25T12:00:34;0.50;;;0.50;;
7937;SDS011;4014;50.810;6.644;2022-08-25T12:05:50;0.50;;;0.50;;
7937;SDS011;4014;50.810;6.644;2022-08-25T12:11:05;0.40;;;0.40;;
7937;SDS011;4014;50.810;6.644;2022-08-25T12:13:40;0.50;;;0.50;;
7937;SDS011;4014;50.810;6.644;2022-08-25T12:18:50;0.50;;;0.50;;
7937;SDS011;4014;50.810;6.644;2022-08-25T12:21:30;0.50;;;0.50;;
7937;SDS011;4014;50.810;6.644;2022-08-25T12:24:08;0.50;;;0.50;;
7937;SDS011;4014;50.810;6.644;2022-08-25T12:26:38;0.50;;;0.50;;
7937;SDS011;4014;50.810;6.644;2022-08-25T12:29:09;0.43;;;0.43;;
7937;SDS011;4014;50.810;6.644;2022-08-25T12:31:43;0.50;;;0.50;;
7937;SDS011;4014;50.810;6.644;2022-08-25T12:34:20;0.50;;;0.50;;
7937;SDS011;4014;50.810;6.644;2022-08-25T12:36:54;0.40;;;0.40;;
7937;SDS011;4014;50.810;6.644;2022-08-25T12:39:22;0.40;;;0.40;;
7937;SDS011;4014;50.810;6.644;2022-08-25T12:41:55;0.50;;;0.50;;
7937;SDS011;4014;50.810;6.644;2022-08-25T12:44:35;0.45;;;0.45;;
7937;SDS011;4014;50.810;6.644;2022-08-25T12:47:12;0.40;;;0.40;;
7937;SDS011;4014;50.810;6.644;2022-08-25T12:49:39;0.50;;;0.50;;
7937;SDS011;4014;50.810;6.644;2022-08-25T12:52:09;0.40;;;0.40;;
7937;SDS011;4014;50.810;6.644;2022-08-25T12:54:41;0.40;;;0.40;;
7937;SDS011;4014;50.810;6.644;2022-08-25T12:57:22;0.50;;;0.50;;
7937;SDS011;4014;50.810;6.644;2022-08-25T12:59:51;0.50;;;0.50;;
7937;SDS011;4014;50.810;6.644;2022-08-25T13:02:34;0.50;;;0.50;;
7937;SDS011;4014;50.810;6.644;2022-08-25T13:05:14;0.50;;;0.50;;
7937;SDS011;4014;50.810;6.644;2022-08-25T13:07:48;0.50;;;0.50;;
7937;SDS011;4014;50.810;6.644;2022-08-25T13:10:22;0.50;;;0.50;;
7937;SDS011;4014;50.810;6.644;2022-08-25T13:12:51;0.50;;;0.50;;
7937;SDS011;4014;50.810;6.644;2022-08-25T13:15:26;0.43;;;0.43;;
7937;SDS011;4014;50.810;6.644;2022-08-25T13:17:53;0.50;;;0.50;;
7937;SDS011;4014;50.810;6.644;2022-08-25T13:20:22;0.50;;;0.50;;
7937;SDS011;4014;50.810;6.644;2022-08-25T13:22:50;0.50;;;0.50;;
7937;SDS011;4014;50.810;6.644;2022-08-25T13:25:18;0.50;;;0.50;;
7937;SDS011;4014;50.810;6.644;2022-08-25T13:27:47;0.50;;;0.50;;
7937;SDS011;4014;50.810;6.644;2022-08-25T13:30:18;0.50;;;0.50;;
7937;SDS011;4014;50.810;6.644;2022-08-25T13:32:49;0.50;;;0.50;;
7937;SDS011;4014;50.810;6.644;2022-08-25T13:35:17;0.50;;;0.50;;
7937;SDS011;4014;50.810;6.644;2022-08-25T13:37:44;0.45;;;0.45;;
7937;SDS011;4014;50.810;6.644;2022-08-25T13:40:11;0.50;;;0.50;;
7937;SDS011;4014;50.810;6.644;2022-08-25T13:42:40;0.50;;;0.50;;
7937;SDS011;4014;50.810;6.644;2022-08-25T13:45:08;0.50;;;0.50;;
7937;SDS011;4014;50.810;6.644;2022-08-25T13:47:39;0.50;;;0.50;;
7937;SDS011;4014;50.810;6.644;2022-08-25T13:50:19;0.50;;;0.50;;
7937;SDS011;4014;50.810;6.644;2022-08-25T13:52:47;0.50;;;0.50;;
7937;SDS011;4014;50.810;6.644;2022-08-25T13:55:19;0.50;;;0.50;;
7937;SDS011;4014;50.810;6.644;2022-08-25T13:57:47;0.50;;;0.50;;
7937;SDS011;4014;50.810;6.644;2022-08-25T14:00:23;0.50;;;0.50;;
7937;SDS011;4014;50.810;6.644;2022-08-25T14:02:52;0.50;;;0.50;;
7937;SDS011;4014;50.810;6.644;2022-08-25T14:05:33;0.50;;;0.50;;
7937;SDS011;4014;50.810;6.644;2022-08-25T14:08:01;0.50;;;0.50;;
7937;SDS011;4014;50.810;6.644;2022-08-25T14:10:33;0.50;;;0.50;;
7937;SDS011;4014;50.810;6.644;2022-08-25T14:13:07;0.50;;;0.50;;
7937;SDS011;4014;50.810;6.644;2022-08-25T14:15:34;0.50;;;0.50;;
7937;SDS011;4014;50.810;6.644;2022-08-25T14:18:03;0.40;;;0.40;;
7937;SDS011;4014;50.810;6.644;2022-08-25T14:20:33;0.50;;;0.50;;
7937;SDS011;4014;50.810;6.644;2022-08-25T14:23:02;0.45;;;0.45;;
7937;SDS011;4014;50.810;6.644;2022-08-25T14:25:30;0.50;;;0.50;;
7937;SDS011;4014;50.810;6.644;2022-08-25T14:27:59;0.43;;;0.43;;
7937;SDS011;4014;50.810;6.644;2022-08-25T14:30:27;0.50;;;0.50;;
7937;SDS011;4014;50.810;6.644;2022-08-25T14:32:54;0.50;;;0.50;;
7937;SDS011;4014;50.810;6.644;2022-08-25T14:35:22;0.43;;;0.43;;
7937;SDS011;4014;50.810;6.644;2022-08-25T14:37:51;0.40;;;0.40;;
7937;SDS011;4014;50.810;6.644;2022-08-25T14:40:18;0.50;;;0.50;;
7937;SDS011;4014;50.810;6.644;2022-08-25T14:42:46;0.50;;;0.50;;
7937;SDS011;4014;50.810;6.644;2022-08-25T14:45:13;0.40;;;0.40;;
7937;SDS011;4014;50.810;6.644;2022-08-25T14:47:41;0.40;;;0.40;;
7937;SDS011;4014;50.810;6.644;2022-08-25T14:50:08;0.50;;;0.50;;
7937;SDS011;4014;50.810;6.644;2022-08-25T14:52:36;0.50;;;0.50;;
7937;SDS011;4014;50.810;6.644;2022-08-25T14:55:05;0.50;;;0.50;;
7937;SDS011;4014;50.810;6.644;2022-08-25T14:57:32;0.50;;;0.50;;
7937;SDS011;4014;50.810;6.644;2022-08-25T14:59:59;0.50;;;0.50;;
7937;SDS011;4014;50.810;6.644;2022-08-25T15:02:27;0.50;;;0.50;;
7937;SDS011;4014;50.810;6.644;2022-08-25T15:04:56;0.50;;;0.50;;
7937;SDS011;4014;50.810;6.644;2022-08-25T15:07:25;0.50;;;0.50;;
7937;SDS011;4014;50.810;6.644;2022-08-25T15:10:12;0.50;;;0.50;;
7937;SDS011;4014;50.810;6.644;2022-08-25T15:12:39;0.50;;;0.50;;
7937;SDS011;4014;50.810;6.644;2022-08-25T15:15:06;0.50;;;0.50;;
7937;SDS011;4014;50.810;6.644;2022-08-25T15:17:34;0.50;;;0.50;;
7937;SDS011;4014;50.810;6.644;2022-08-25T15:20:01;0.50;;;0.50;;
7937;SDS011;4014;50.810;6.644;2022-08-25T15:22:28;0.50;;;0.50;;
7937;SDS011;4014;50.810;6.644;2022-08-25T15:24:55;0.50;;;0.50;;
7937;SDS011;4014;50.810;6.644;2022-08-25T15:27:24;0.47;;;0.47;;
7937;SDS011;4014;50.810;6.644;2022-08-25T15:29:51;0.50;;;0.50;;
7937;SDS011;4014;50.810;6.644;2022-08-25T15:32:20;0.50;;;0.50;;
7937;SDS011;4014;50.810;6.644;2022-08-25T15:34:48;0.50;;;0.50;;
7937;SDS011;4014;50.810;6.644;2022-08-25T15:37:16;0.50;;;0.50;;
7937;SDS011;4014;50.810;6.644;2022-08-25T15:39:43;0.50;;;0.50;;
7937;SDS011;4014;50.810;6.644;2022-08-25T15:42:11;0.50;;;0.50;;
7937;SDS011;4014;50.810;6.644;2022-08-25T15:44:42;0.50;;;0.50;;